Time;durP1;ratioP1;P1;durP2;ratioP2;P2;SDS_P1;SDS_P2;PMS_P1;PMS_P2;Temp;Humidity;BMP_temperature;BMP_pressure;BME280_temperature;BME280_humidity;BME280_pressure;Samples;Min_cycle;Max_cycle;Signal;HPM_P1;HPM_P2
2023/05/03 00:00:19;;;;;;;14.80;13.90;;;12.30;1.00;;;;;;4938874;28;20539;-78
2023/05/03 00:02:48;;;;;;;14.47;13.77;;;12.30;1.00;;;;;;4938954;28;20832;-79
2023/05/03 00:05:16;;;;;;;14.13;13.47;;;12.30;1.00;;;;;;4940501;28;20547;-77
2023/05/03 00:07:46;;;;;;;14.67;13.97;;;12.30;1.00;;;;;;4937822;28;20463;-78
2023/05/03 00:10:15;;;;;;;14.33;13.60;;;12.30;1.00;;;;;;4937143;29;20490;-78
2023/05/03 00:12:44;;;;;;;15.53;14.67;;;12.30;1.00;;;;;;4939234;29;20463;-78
2023/05/03 00:15:12;;;;;;;14.90;14.13;;;12.20;1.00;;;;;;4933693;28;20494;-78
2023/05/03 00:17:40;;;;;;;14.87;14.27;;;12.20;1.00;;;;;;4935900;28;20540;-79
2023/05/03 00:20:11;;;;;;;14.57;13.80;;;12.30;1.00;;;;;;4936949;28;20484;-79
2023/05/03 00:22:39;;;;;;;14.53;13.80;;;12.30;1.00;;;;;;4936249;28;20455;-79
2023/05/03 00:25:08;;;;;;;14.30;13.60;;;12.20;1.00;;;;;;4939543;28;20463;-79
2023/05/03 00:27:37;;;;;;;13.83;13.27;;;12.20;1.00;;;;;;4936233;28;20473;-80
2023/05/03 00:30:08;;;;;;;14.80;14.10;;;12.30;1.00;;;;;;4936688;28;20486;-79
2023/05/03 00:32:36;;;;;;;13.90;13.30;;;12.20;1.00;;;;;;4936112;28;20545;-79
2023/05/03 00:35:05;;;;;;;14.50;13.70;;;12.20;1.00;;;;;;4935742;28;20462;-79
2023/05/03 00:37:33;;;;;;;14.43;13.83;;;12.10;1.00;;;;;;4937149;28;20526;-80
2023/05/03 00:40:03;;;;;;;14.00;13.40;;;12.20;1.00;;;;;;4937031;28;20508;-79
2023/05/03 00:42:35;;;;;;;14.07;13.57;;;12.20;1.00;;;;;;4935417;28;20469;-79
2023/05/03 00:45:04;;;;;;;14.67;14.07;;;12.10;1.00;;;;;;4935257;29;20471;-80
2023/05/03 00:47:36;;;;;;;13.77;13.17;;;12.10;1.00;;;;;;4941704;28;20882;-79
2023/05/03 00:50:05;;;;;;;14.87;13.93;;;12.10;1.00;;;;;;4936203;28;20857;-79
2023/05/03 00:52:34;;;;;;;13.80;13.13;;;12.10;1.00;;;;;;4938664;28;20634;-80
2023/05/03 00:55:03;;;;;;;14.10;13.20;;;12.00;1.00;;;;;;4940122;28;20555;-81
2023/05/03 00:57:31;;;;;;;15.20;14.13;;;12.00;4.80;;;;;;4935338;28;20518;-78
2023/05/03 00:59:59;;;;;;;15.13;14.33;;;12.00;4.10;;;;;;4934569;29;20519;-79
2023/05/03 01:02:28;;;;;;;15.00;14.30;;;11.90;15.20;;;;;;4937579;28;20507;-79
2023/05/03 01:04:58;;;;;;;14.80;14.17;;;11.90;51.70;;;;;;4936666;28;20559;-78
2023/05/03 01:07:35;;;;;;;13.90;13.40;;;11.90;46.70;;;;;;4938815;29;20582;-77
2023/05/03 01:10:17;;;;;;;15.17;14.47;;;11.80;53.40;;;;;;4935902;28;21066;-79
2023/05/03 01:12:55;;;;;;;14.90;14.20;;;11.80;70.60;;;;;;4934679;29;20453;-79
2023/05/03 01:15:39;;;;;;;15.03;14.33;;;11.80;37.50;;;;;;4931738;28;20461;-79
2023/05/03 01:18:12;;;;;;;14.57;13.93;;;11.70;99.90;;;;;;4933852;28;20517;-79
2023/05/03 01:20:46;;;;;;;14.87;14.23;;;11.70;99.80;;;;;;4936994;28;20482;-78
2023/05/03 01:23:22;;;;;;;14.47;13.77;;;11.60;99.90;;;;;;4936887;28;20541;-78
2023/05/03 01:25:53;;;;;;;15.03;14.43;;;11.60;99.90;;;;;;4938327;28;20824;-79
2023/05/03 01:28:21;;;;;;;15.00;14.30;;;11.60;99.90;;;;;;4935313;29;21676;-79
2023/05/03 01:30:52;;;;;;;14.73;14.03;;;11.50;99.90;;;;;;4937861;28;20479;-79
2023/05/03 01:33:28;;;;;;;15.17;14.50;;;11.50;99.90;;;;;;4932872;28;20466;-79
2023/05/03 01:36:00;;;;;;;14.67;13.87;;;11.40;99.90;;;;;;4936473;28;21150;-79
2023/05/03 01:38:33;;;;;;;15.20;14.40;;;11.40;99.90;;;;;;4935527;29;20457;-79
2023/05/03 01:41:08;;;;;;;14.70;14.00;;;11.40;99.90;;;;;;4935581;28;20469;-80
2023/05/03 01:43:38;;;;;;;14.97;14.13;;;11.30;99.90;;;;;;4937295;28;20546;-79
2023/05/03 01:46:06;;;;;;;15.43;14.20;;;11.30;99.90;;;;;;4936245;28;20472;-79
2023/05/03 01:48:34;;;;;;;14.53;13.83;;;11.30;99.90;;;;;;4931523;29;20458;-79
2023/05/03 01:51:02;;;;;;;14.20;13.60;;;11.20;99.90;;;;;;4935542;28;21572;-78
2023/05/03 01:53:30;;;;;;;14.87;14.10;;;11.20;99.90;;;;;;4938426;28;20479;-80
2023/05/03 01:55:58;;;;;;;14.27;13.70;;;11.20;99.90;;;;;;4934577;28;20453;-80
2023/05/03 01:58:28;;;;;;;15.17;14.20;;;11.10;99.90;;;;;;4937002;28;20541;-79
2023/05/03 02:00:56;;;;;;;14.20;13.40;;;11.10;99.90;;;;;;4937560;28;20528;-80
2023/05/03 02:03:25;;;;;;;15.37;14.50;;;11.10;99.90;;;;;;4936553;28;20446;-80
2023/05/03 02:05:53;;;;;;;14.87;14.00;;;11.10;99.90;;;;;;4937734;28;20541;-79
2023/05/03 02:08:21;;;;;;;14.70;14.00;;;11.00;99.90;;;;;;4937384;28;20534;-79
2023/05/03 02:10:49;;;;;;;16.07;14.73;;;11.10;99.90;;;;;;4930468;28;20485;-80
2023/05/03 02:13:17;;;;;;;15.50;14.60;;;11.00;99.90;;;;;;4936427;29;20499;-79
2023/05/03 02:15:47;;;;;;;15.20;14.30;;;10.90;99.90;;;;;;4937064;28;20457;-79
2023/05/03 02:18:17;;;;;;;16.00;14.80;;;10.90;99.90;;;;;;4935594;28;20466;-79
2023/05/03 02:20:45;;;;;;;14.53;13.93;;;10.90;99.90;;;;;;4935847;28;20484;-80
2023/05/03 02:23:14;;;;;;;14.90;14.07;;;10.90;99.90;;;;;;4933955;29;20465;-80
2023/05/03 02:25:42;;;;;;;15.57;14.50;;;10.90;99.90;;;;;;4933385;28;21070;-80
2023/05/03 02:28:10;;;;;;;14.87;14.00;;;10.80;99.90;;;;;;4933902;28;20479;-79
2023/05/03 02:30:38;;;;;;;15.37;14.40;;;10.70;99.90;;;;;;4941018;28;20493;-79
2023/05/03 02:33:08;;;;;;;15.00;14.20;;;10.80;99.90;;;;;;4939015;28;20465;-79
2023/05/03 02:35:36;;;;;;;14.30;13.60;;;10.70;99.90;;;;;;4939814;28;20454;-80
2023/05/03 02:38:04;;;;;;;14.37;13.47;;;10.70;99.90;;;;;;4936549;29;20471;-79
2023/05/03 02:40:32;;;;;;;15.67;14.57;;;10.70;99.90;;;;;;4938222;28;20479;-79
2023/05/03 02:43:01;;;;;;;15.07;14.13;;;10.70;99.90;;;;;;4940808;28;20456;-79
2023/05/03 02:45:29;;;;;;;14.67;13.97;;;10.70;99.90;;;;;;4935412;28;20453;-79
2023/05/03 02:47:58;;;;;;;14.73;14.03;;;10.70;99.90;;;;;;4941005;28;20461;-78
2023/05/03 02:50:27;;;;;;;15.33;14.53;;;10.60;99.90;;;;;;4936766;28;20485;-79
2023/05/03 02:52:56;;;;;;;15.33;14.40;;;10.60;1.00;;;;;;4938502;28;20549;-80
2023/05/03 02:55:24;;;;;;;16.00;15.00;;;10.50;99.90;;;;;;4940959;28;20461;-79
2023/05/03 02:57:52;;;;;;;15.63;14.83;;;10.50;99.90;;;;;;4937997;29;20460;-79
2023/05/03 03:00:20;;;;;;;16.43;15.53;;;10.50;1.00;;;;;;4937786;28;20487;-79
2023/05/03 03:02:48;;;;;;;15.83;14.93;;;10.50;99.90;;;;;;4938567;28;20541;-78
2023/05/03 03:05:17;;;;;;;15.50;14.70;;;10.50;99.90;;;;;;4953231;28;20515;-79
2023/05/03 03:07:47;;;;;;;16.57;15.57;;;10.50;99.90;;;;;;4936866;28;21056;-80
2023/05/03 03:10:15;;;;;;;16.00;15.30;;;10.50;99.90;;;;;;4934828;28;20971;-78
2023/05/03 03:12:43;;;;;;;16.70;15.60;;;10.50;99.90;;;;;;4939974;28;20976;-79
2023/05/03 03:15:12;;;;;;;16.33;15.43;;;10.40;99.90;;;;;;4937152;28;20456;-79
2023/05/03 03:17:40;;;;;;;16.77;15.77;;;10.40;1.00;;;;;;4937531;28;20903;-79
2023/05/03 03:20:10;;;;;;;15.87;14.97;;;10.40;99.90;;;;;;4938346;28;20474;-80
2023/05/03 03:22:38;;;;;;;16.13;15.23;;;10.30;99.90;;;;;;4937510;28;20950;-79
2023/05/03 03:25:09;;;;;;;16.60;15.70;;;10.30;99.90;;;;;;4935580;28;20458;-78
2023/05/03 03:27:37;;;;;;;16.90;16.00;;;10.30;99.90;;;;;;4935375;28;20460;-79
2023/05/03 03:30:09;;;;;;;17.13;16.23;;;10.20;99.90;;;;;;4936455;28;21118;-79
2023/05/03 03:32:37;;;;;;;16.10;15.30;;;10.20;99.90;;;;;;4940233;28;20484;-79
2023/05/03 03:35:07;;;;;;;16.53;15.60;;;10.20;99.90;;;;;;4939431;29;20461;-79
2023/05/03 03:37:35;;;;;;;16.20;15.40;;;10.10;99.90;;;;;;4941666;28;20544;-78
2023/05/03 03:40:04;;;;;;;15.83;14.97;;;10.20;99.90;;;;;;4937588;28;20548;-78
2023/05/03 03:42:34;;;;;;;17.73;16.53;;;10.20;99.90;;;;;;4941768;28;20463;-78
2023/05/03 03:45:03;;;;;;;17.27;16.27;;;10.10;99.90;;;;;;4953707;28;20479;-78
2023/05/03 03:47:31;;;;;;;16.33;15.53;;;10.10;1.00;;;;;;4938800;28;20462;-79
2023/05/03 03:50:00;;;;;;;17.20;16.10;;;10.10;1.00;;;;;;4942049;28;20477;-79
2023/05/03 03:52:29;;;;;;;16.03;15.10;;;10.10;99.90;;;;;;4939241;28;20480;-79
2023/05/03 03:54:57;;;;;;;16.50;15.73;;;10.20;99.90;;;;;;4934013;28;20469;-79
2023/05/03 03:57:28;;;;;;;16.03;15.23;;;10.10;99.90;;;;;;4936581;28;21050;-78
2023/05/03 03:59:58;;;;;;;17.03;16.03;;;10.00;99.90;;;;;;4938009;28;20472;-79
2023/05/03 04:02:27;;;;;;;16.97;16.07;;;10.10;99.90;;;;;;4933393;28;20452;-79
2023/05/03 04:04:55;;;;;;;17.00;16.00;;;10.10;99.90;;;;;;4940847;28;20461;-79
2023/05/03 04:07:23;;;;;;;17.03;16.13;;;10.10;1.00;;;;;;4941856;28;20986;-79
2023/05/03 04:09:52;;;;;;;17.73;16.40;;;10.10;1.00;;;;;;4937548;28;20579;-78
2023/05/03 04:12:20;;;;;;;16.07;15.20;;;10.10;1.00;;;;;;4938470;28;20476;-78
2023/05/03 04:14:48;;;;;;;17.10;16.30;;;10.10;1.00;;;;;;4943573;28;20453;-78
2023/05/03 04:17:17;;;;;;;17.57;16.70;;;10.10;1.00;;;;;;4937806;28;20457;-78
2023/05/03 04:19:46;;;;;;;17.70;16.40;;;10.10;1.00;;;;;;4936305;28;20474;-79
2023/05/03 04:22:14;;;;;;;17.37;16.50;;;10.20;1.00;;;;;;4945244;28;20490;-77
2023/05/03 04:24:42;;;;;;;17.00;16.10;;;10.20;1.00;;;;;;4938630;28;20467;-79
2023/05/03 04:27:13;;;;;;;18.50;17.50;;;10.20;1.00;;;;;;4941012;28;20448;-79
2023/05/03 04:29:41;;;;;;;17.77;16.60;;;10.20;1.00;;;;;;4939800;28;21287;-79
2023/05/03 04:32:10;;;;;;;18.17;17.13;;;10.20;1.00;;;;;;4939771;28;20564;-81
2023/05/03 04:34:41;;;;;;;18.07;16.90;;;10.30;99.90;;;;;;4943414;28;20448;-80
2023/05/03 04:37:09;;;;;;;17.90;16.90;;;10.30;99.90;;;;;;4940677;28;20537;-81
2023/05/03 04:39:37;;;;;;;18.30;17.10;;;10.30;99.90;;;;;;4945407;28;20505;-79
2023/05/03 04:42:06;;;;;;;19.10;17.90;;;10.40;99.90;;;;;;4942042;28;20480;-80
2023/05/03 04:44:34;;;;;;;18.93;17.63;;;10.40;99.90;;;;;;4941774;29;21283;-80
2023/05/03 04:47:02;;;;;;;18.57;17.40;;;10.40;99.90;;;;;;4940237;28;20947;-80
2023/05/03 04:49:31;;;;;;;20.53;18.80;;;10.40;1.00;;;;;;4943836;28;20476;-80
2023/05/03 04:52:01;;;;;;;19.20;18.00;;;10.50;1.00;;;;;;4935925;28;20548;-79
2023/05/03 04:54:29;;;;;;;19.40;18.03;;;10.60;1.00;;;;;;4940416;28;20879;-80
2023/05/03 04:56:57;;;;;;;19.40;18.30;;;10.60;99.90;;;;;;4940947;28;20531;-80
2023/05/03 04:59:25;;;;;;;21.20;19.17;;;10.60;99.90;;;;;;4933400;28;20886;-79
2023/05/03 05:01:53;;;;;;;19.57;18.37;;;10.60;99.90;;;;;;4935657;28;20461;-79
2023/05/03 05:04:22;;;;;;;19.23;18.10;;;10.70;99.90;;;;;;4944184;28;20474;-79
2023/05/03 05:06:51;;;;;;;19.40;18.27;;;10.90;1.00;;;;;;4930195;28;20460;-80
2023/05/03 05:09:25;;;;;;;19.60;18.20;;;10.90;99.90;;;;;;4940096;28;20486;-80
2023/05/03 05:11:53;;;;;;;20.63;19.33;;;10.80;99.90;;;;;;4940188;28;20508;-81
2023/05/03 05:14:26;;;;;;;19.43;18.27;;;11.00;99.90;;;;;;4943761;28;21088;-82
2023/05/03 05:16:54;;;;;;;19.70;18.30;;;11.00;1.00;;;;;;4938581;28;20450;-81
2023/05/03 05:19:22;;;;;;;21.50;20.10;;;11.00;99.90;;;;;;4938756;28;20487;-80
2023/05/03 05:21:51;;;;;;;19.37;18.27;;;11.00;99.90;;;;;;4952295;28;20457;-80
2023/05/03 05:24:19;;;;;;;20.30;19.10;;;11.10;99.90;;;;;;4935516;28;20462;-80
2023/05/03 05:26:49;;;;;;;20.60;19.40;;;11.10;1.00;;;;;;4936701;28;20530;-79
2023/05/03 05:29:17;;;;;;;20.60;19.23;;;11.10;99.90;;;;;;4938253;28;20488;-79
2023/05/03 05:31:45;;;;;;;20.17;18.90;;;11.20;99.90;;;;;;4940493;28;20449;-80
2023/05/03 05:34:13;;;;;;;20.63;19.33;;;11.20;99.90;;;;;;4936587;28;20522;-80
2023/05/03 05:36:42;;;;;;;20.07;18.87;;;11.20;99.90;;;;;;4932760;28;20531;-80
2023/05/03 05:39:10;;;;;;;21.87;20.43;;;11.30;99.90;;;;;;4935100;28;20477;-80
2023/05/03 05:41:39;;;;;;;22.47;21.00;;;11.30;99.90;;;;;;4937059;28;20461;-80
2023/05/03 05:44:08;;;;;;;21.00;19.57;;;11.30;99.90;;;;;;4938193;28;20455;-80
2023/05/03 05:46:36;;;;;;;21.80;20.07;;;11.40;99.90;;;;;;4937000;28;20514;-79
2023/05/03 05:49:05;;;;;;;23.60;21.73;;;11.50;99.90;;;;;;4937164;28;21203;-79
2023/05/03 05:51:34;;;;;;;23.17;21.40;;;11.50;99.90;;;;;;4938473;28;21069;-79
2023/05/03 05:54:02;;;;;;;22.10;20.50;;;11.50;99.90;;;;;;4939698;28;20466;-79
2023/05/03 05:56:30;;;;;;;23.00;21.40;;;11.50;99.90;;;;;;4939157;28;20566;-80
2023/05/03 05:58:59;;;;;;;21.40;20.00;;;11.50;99.90;;;;;;4952260;28;20524;-80
2023/05/03 06:01:30;;;;;;;21.83;20.57;;;11.60;99.90;;;;;;4940324;28;20483;-79
2023/05/03 06:03:59;;;;;;;21.47;19.87;;;11.60;99.90;;;;;;4938894;28;20459;-80
2023/05/03 06:06:28;;;;;;;22.13;20.43;;;11.70;99.90;;;;;;4939917;28;20522;-80
2023/05/03 06:08:56;;;;;;;21.90;20.60;;;11.70;99.90;;;;;;4939209;28;20901;-79
2023/05/03 06:11:25;;;;;;;21.80;20.43;;;11.80;99.90;;;;;;4938338;28;20465;-80
2023/05/03 06:13:54;;;;;;;22.00;20.60;;;11.80;1.00;;;;;;4936719;28;20484;-80
2023/05/03 06:16:22;;;;;;;21.63;20.43;;;11.80;99.90;;;;;;4935903;28;20537;-80
2023/05/03 06:18:52;;;;;;;22.00;20.47;;;11.80;99.90;;;;;;4939849;28;20476;-79
2023/05/03 06:21:21;;;;;;;23.10;21.57;;;11.80;99.90;;;;;;4936831;29;20533;-80
2023/05/03 06:23:49;;;;;;;23.17;21.53;;;11.90;1.00;;;;;;4937830;28;20463;-80
2023/05/03 06:26:17;;;;;;;22.43;21.17;;;11.90;1.00;;;;;;4936977;28;20477;-80
2023/05/03 06:28:46;;;;;;;23.53;21.77;;;11.90;1.00;;;;;;4940014;28;20553;-80
2023/05/03 06:31:14;;;;;;;22.50;21.00;;;12.00;8.30;;;;;;4935820;28;20501;-81
2023/05/03 06:33:42;;;;;;;22.20;20.80;;;12.00;1.00;;;;;;4937782;28;20498;-81
2023/05/03 06:36:12;;;;;;;22.67;21.17;;;12.10;1.00;;;;;;4940288;28;20489;-80
2023/05/03 06:38:40;;;;;;;21.03;19.93;;;12.10;1.00;;;;;;4934723;28;20525;-80
2023/05/03 06:41:08;;;;;;;22.70;21.30;;;12.20;1.00;;;;;;4935491;28;21379;-80
2023/05/03 06:43:36;;;;;;;22.87;21.43;;;12.30;1.00;;;;;;4936924;28;20443;-80
2023/05/03 06:46:04;;;;;;;23.53;21.93;;;12.40;1.00;;;;;;4940717;28;20745;-80
2023/05/03 06:48:33;;;;;;;22.00;20.60;;;12.30;1.00;;;;;;4938143;28;20475;-80
2023/05/03 06:51:01;;;;;;;22.10;20.60;;;12.40;1.00;;;;;;4933417;28;20570;-80
2023/05/03 06:53:30;;;;;;;23.07;21.50;;;12.50;1.00;;;;;;4935478;28;20494;-80
2023/05/03 06:55:59;;;;;;;23.10;21.60;;;12.50;1.00;;;;;;4940609;28;20457;-79
2023/05/03 06:58:27;;;;;;;22.47;21.07;;;12.60;99.90;;;;;;4936535;28;20475;-79
2023/05/03 07:00:55;;;;;;;21.70;20.40;;;12.60;1.00;;;;;;4938205;28;20586;-79
2023/05/03 07:03:24;;;;;;;22.07;20.60;;;12.70;99.90;;;;;;4933472;28;20460;-81
2023/05/03 07:05:52;;;;;;;22.90;21.40;;;12.70;99.90;;;;;;4936579;28;20833;-80
2023/05/03 07:08:20;;;;;;;23.10;21.70;;;12.80;99.90;;;;;;4935126;28;20501;-80
2023/05/03 07:10:50;;;;;;;23.50;22.00;;;12.90;99.90;;;;;;4936153;28;20471;-79
2023/05/03 07:13:18;;;;;;;25.20;23.50;;;13.00;99.90;;;;;;4937756;28;20474;-81
2023/05/03 07:15:46;;;;;;;23.07;21.70;;;13.10;99.90;;;;;;4941792;28;20468;-80
2023/05/03 07:18:15;;;;;;;22.80;21.50;;;13.20;99.90;;;;;;4940840;29;20960;-80
2023/05/03 07:20:45;;;;;;;23.67;22.20;;;13.10;99.90;;;;;;4937298;28;21018;-79
2023/05/03 07:23:13;;;;;;;23.37;21.97;;;13.20;99.90;;;;;;4942050;28;20475;-79
2023/05/03 07:25:42;;;;;;;23.07;21.50;;;13.20;99.90;;;;;;4942659;28;20483;-80
2023/05/03 07:28:12;;;;;;;23.90;22.27;;;13.30;99.90;;;;;;4937478;28;20546;-80
2023/05/03 07:30:40;;;;;;;22.67;21.47;;;13.50;99.90;;;;;;4935954;28;20475;-79
2023/05/03 07:33:08;;;;;;;22.77;21.50;;;13.50;99.90;;;;;;4939275;28;20556;-80
2023/05/03 07:35:37;;;;;;;23.77;22.30;;;13.50;18.50;;;;;;4939499;28;20485;-80
2023/05/03 07:38:06;;;;;;;23.30;22.00;;;13.50;18.30;;;;;;4939765;28;20476;-79
2023/05/03 07:40:36;;;;;;;25.33;23.60;;;13.60;27.20;;;;;;4941213;28;20570;-80
2023/05/03 07:43:04;;;;;;;23.43;22.23;;;13.60;1.00;;;;;;4941987;28;20491;-80
2023/05/03 07:45:34;;;;;;;23.33;22.10;;;13.80;18.60;;;;;;4942599;28;20534;-79
2023/05/03 07:48:03;;;;;;;23.63;22.23;;;14.00;25.30;;;;;;4938062;28;20468;-79
2023/05/03 07:50:31;;;;;;;25.00;23.60;;;14.00;1.00;;;;;;4941378;28;20498;-79
2023/05/03 07:52:59;;;;;;;24.80;23.03;;;14.20;1.00;;;;;;4943022;28;20962;-79
2023/05/03 07:55:30;;;;;;;22.57;21.37;;;14.30;1.00;;;;;;4940614;28;20603;-80
2023/05/03 07:57:58;;;;;;;24.07;22.67;;;14.30;1.00;;;;;;4942583;28;21019;-79
2023/05/03 08:00:27;;;;;;;24.03;22.70;;;14.40;1.00;;;;;;4940090;28;20472;-79
2023/05/03 08:02:57;;;;;;;24.10;22.40;;;14.50;1.00;;;;;;4942624;28;21181;-79
2023/05/03 08:05:28;;;;;;;23.53;22.17;;;14.50;1.00;;;;;;4939605;28;20455;-79
2023/05/03 08:07:56;;;;;;;24.10;22.50;;;14.40;1.00;;;;;;4939075;28;20468;-79
2023/05/03 08:10:25;;;;;;;25.03;23.60;;;14.50;1.00;;;;;;4941031;28;20488;-80
2023/05/03 08:12:53;;;;;;;24.17;22.77;;;14.50;1.00;;;;;;4940141;28;20463;-80
2023/05/03 08:15:21;;;;;;;23.67;22.40;;;14.50;1.00;;;;;;4943672;28;20492;-80
2023/05/03 08:17:50;;;;;;;22.73;21.40;;;14.50;1.00;;;;;;4941856;28;20456;-80
2023/05/03 08:20:20;;;;;;;23.53;22.13;;;14.60;1.00;;;;;;4939004;28;20556;-79
2023/05/03 08:22:49;;;;;;;24.33;22.83;;;14.60;1.00;;;;;;4940910;28;20518;-80
2023/05/03 08:25:19;;;;;;;24.17;22.77;;;14.80;1.00;;;;;;4942176;28;20831;-80
2023/05/03 08:27:48;;;;;;;24.60;23.27;;;14.80;1.00;;;;;;4940407;28;20455;-80
2023/05/03 08:30:16;;;;;;;25.60;24.00;;;14.80;1.00;;;;;;4940327;28;21035;-80
2023/05/03 08:32:45;;;;;;;23.67;22.47;;;14.90;1.00;;;;;;4940634;28;20889;-80
2023/05/03 08:35:14;;;;;;;23.43;22.10;;;15.00;1.00;;;;;;4937918;29;20480;-80
2023/05/03 08:37:44;;;;;;;23.40;22.10;;;15.00;1.00;;;;;;4940567;28;20456;-79
2023/05/03 08:40:14;;;;;;;23.57;22.37;;;14.90;1.00;;;;;;4942936;28;20472;-79
2023/05/03 08:42:44;;;;;;;23.53;22.27;;;15.00;1.00;;;;;;4940635;28;20489;-80
2023/05/03 08:45:14;;;;;;;23.40;22.00;;;15.10;1.00;;;;;;4940060;28;20975;-79
2023/05/03 08:47:43;;;;;;;23.00;21.60;;;15.00;1.00;;;;;;4937823;28;20487;-80
2023/05/03 08:50:13;;;;;;;23.27;22.07;;;15.10;1.00;;;;;;4939515;28;20517;-79
2023/05/03 08:52:45;;;;;;;23.47;21.97;;;15.10;1.00;;;;;;4946574;28;20466;-82
2023/05/03 08:55:14;;;;;;;23.20;21.90;;;15.20;1.00;;;;;;4949216;28;20484;-84
2023/05/03 08:57:42;;;;;;;23.20;21.90;;;15.20;1.00;;;;;;4948040;28;20461;-80
2023/05/03 09:00:11;;;;;;;22.97;21.60;;;15.20;1.00;;;;;;4949635;28;20549;-81
2023/05/03 09:02:41;;;;;;;23.83;22.50;;;15.20;1.00;;;;;;4945972;28;20843;-80
2023/05/03 09:05:33;;;;;;;22.00;20.80;;;15.20;1.00;;;;;;4945750;28;20457;-82
2023/05/03 09:08:06;;;;;;;22.17;20.97;;;15.40;1.00;;;;;;4944442;28;20540;-81
2023/05/03 09:10:37;;;;;;;22.20;21.00;;;15.40;1.00;;;;;;4948037;28;21975;-80
2023/05/03 09:13:06;;;;;;;23.08;21.77;;;15.50;1.00;;;;;;4942686;28;20448;-81
2023/05/03 09:15:35;;;;;;;21.37;20.03;;;15.60;1.00;;;;;;4938805;28;20226;-80
2023/05/03 09:18:11;;;;;;;21.50;20.30;;;15.60;1.00;;;;;;4937224;28;20588;-80
2023/05/03 09:20:41;;;;;;;22.23;20.80;;;15.80;1.00;;;;;;4942174;28;20566;-80
2023/05/03 09:23:11;;;;;;;22.03;20.93;;;15.80;99.90;;;;;;4943390;29;20465;-82
2023/05/03 09:25:44;;;;;;;21.47;20.23;;;15.80;99.90;;;;;;4941346;28;20488;-80
2023/05/03 09:28:14;;;;;;;21.70;20.60;;;15.90;99.90;;;;;;4937908;28;20803;-78
2023/05/03 09:30:43;;;;;;;21.33;20.13;;;15.80;99.90;;;;;;4940151;29;20497;-79
2023/05/03 09:33:19;;;;;;;22.20;21.10;;;15.90;99.90;;;;;;4939712;28;20747;-77
2023/05/03 09:36:05;;;;;;;21.77;20.67;;;16.00;99.90;;;;;;4940525;28;20505;-79
2023/05/03 09:38:36;;;;;;;21.73;20.53;;;16.00;1.00;;;;;;4940136;28;20517;-80
2023/05/03 09:41:06;;;;;;;22.67;21.47;;;16.20;99.90;;;;;;4939032;28;20490;-79
2023/05/03 09:43:35;;;;;;;23.03;21.70;;;16.20;99.90;;;;;;4938521;29;20474;-80
2023/05/03 09:46:13;;;;;;;20.90;19.70;;;16.30;1.00;;;;;;4934654;28;20448;-78
2023/05/03 09:48:42;;;;;;;23.30;21.80;;;16.40;99.90;;;;;;4935384;28;20522;-80
2023/05/03 09:51:12;;;;;;;21.23;20.23;;;16.50;99.90;;;;;;4938447;28;20507;-80
2023/05/03 09:53:43;;;;;;;21.67;20.67;;;16.60;99.90;;;;;;4938133;28;20842;-79
2023/05/03 09:56:12;;;;;;;22.33;21.03;;;16.60;99.90;;;;;;4938227;28;20490;-79
2023/05/03 09:58:42;;;;;;;21.57;20.23;;;16.60;99.90;;;;;;4933020;29;20485;-80
2023/05/03 10:01:12;;;;;;;21.97;20.80;;;16.60;99.90;;;;;;4938343;28;20813;-79
2023/05/03 10:03:43;;;;;;;21.13;20.10;;;16.60;99.90;;;;;;4937070;28;20459;-79
2023/05/03 10:06:22;;;;;;;21.63;20.47;;;16.50;99.90;;;;;;4935996;28;20474;-80
2023/05/03 10:08:55;;;;;;;21.87;20.77;;;16.60;99.90;;;;;;4939565;28;20507;-81
2023/05/03 10:11:26;;;;;;;22.07;20.97;;;16.70;99.90;;;;;;4938508;28;20524;-81
2023/05/03 10:13:54;;;;;;;21.93;20.70;;;16.70;99.90;;;;;;4926001;28;20494;-78
2023/05/03 10:16:27;;;;;;;21.33;20.43;;;16.90;99.90;;;;;;4935574;28;20487;-79
2023/05/03 10:19:04;;;;;;;21.20;20.20;;;17.00;99.90;;;;;;4937310;28;20470;-79
2023/05/03 10:21:42;;;;;;;22.17;20.77;;;17.00;99.90;;;;;;4938540;28;20559;-81
2023/05/03 10:24:12;;;;;;;20.70;19.70;;;17.10;99.90;;;;;;4939890;28;20467;-80
2023/05/03 10:26:41;;;;;;;20.20;19.10;;;17.20;99.90;;;;;;4937882;28;20464;-80
2023/05/03 10:29:48;;;;;;;20.20;19.30;;;17.20;99.90;;;;;;4939585;28;20464;-82
2023/05/03 10:32:39;;;;;;;20.50;19.60;;;17.30;99.90;;;;;;4944394;28;20449;-80
2023/05/03 10:35:10;;;;;;;19.63;18.83;;;17.20;99.90;;;;;;4937930;28;20467;-79
2023/05/03 10:37:41;;;;;;;20.20;19.03;;;17.20;99.90;;;;;;4938760;28;20506;-82
2023/05/03 10:40:13;;;;;;;21.33;20.03;;;17.20;99.90;;;;;;4939438;28;20471;-79
2023/05/03 10:42:44;;;;;;;21.57;20.47;;;17.20;99.90;;;;;;4938584;28;21175;-79
2023/05/03 10:45:27;;;;;;;21.17;20.07;;;17.10;99.90;;;;;;4934490;28;20460;-80
2023/05/03 10:48:23;;;;;;;19.80;18.90;;;17.20;99.90;;;;;;4939097;28;20455;-80
2023/05/03 10:50:51;;;;;;;19.97;19.07;;;17.30;99.90;;;;;;4941305;28;20485;-80
2023/05/03 10:53:37;;;;;;;20.27;19.17;;;17.30;99.90;;;;;;4943274;28;20482;-81
2023/05/03 10:56:08;;;;;;;20.07;19.20;;;17.40;99.90;;;;;;4947605;28;20220;-81
2023/05/03 10:58:37;;;;;;;20.90;19.70;;;17.50;99.90;;;;;;4944360;28;20463;-80
2023/05/03 11:01:06;;;;;;;19.13;18.27;;;17.60;99.90;;;;;;4946682;28;20474;-80
2023/05/03 11:03:43;;;;;;;20.50;19.50;;;17.60;99.90;;;;;;4943495;28;20451;-82
2023/05/03 11:06:31;;;;;;;19.13;18.33;;;17.70;99.90;;;;;;4943183;28;20460;-81
2023/05/03 11:08:59;;;;;;;20.27;19.37;;;17.70;99.90;;;;;;4945214;28;20540;-81
2023/05/03 11:11:30;;;;;;;20.40;19.50;;;17.80;99.90;;;;;;4944406;28;20492;-80
2023/05/03 11:13:58;;;;;;;19.97;19.17;;;17.80;99.90;;;;;;4944372;28;20444;-80
2023/05/03 11:16:26;;;;;;;21.40;20.30;;;17.90;99.90;;;;;;4943515;28;20520;-82
2023/05/03 11:18:55;;;;;;;19.70;18.80;;;17.90;99.90;;;;;;4944680;28;21033;-81
2023/05/03 11:21:23;;;;;;;19.00;18.00;;;18.00;99.90;;;;;;4942401;28;20547;-82
2023/05/03 11:23:52;;;;;;;19.90;19.03;;;17.90;99.90;;;;;;4943148;28;21035;-81
2023/05/03 11:26:24;;;;;;;19.87;18.87;;;17.90;99.90;;;;;;4946561;28;21010;-80
2023/05/03 11:28:55;;;;;;;19.30;18.50;;;17.90;99.90;;;;;;4946844;28;20448;-82
2023/05/03 11:31:23;;;;;;;19.50;18.60;;;18.00;99.90;;;;;;4943601;28;20518;-81
2023/05/03 11:33:51;;;;;;;19.27;18.33;;;17.90;99.90;;;;;;4943853;29;20461;-81
2023/05/03 11:36:20;;;;;;;20.40;19.50;;;17.90;99.90;;;;;;4944263;29;20495;-84
2023/05/03 11:38:48;;;;;;;19.70;18.63;;;17.80;99.90;;;;;;4946968;28;20514;-82
2023/05/03 11:41:17;;;;;;;19.23;18.23;;;17.90;99.90;;;;;;4943221;28;20499;-80
2023/05/03 11:43:47;;;;;;;18.57;17.87;;;17.90;99.90;;;;;;4946630;28;20510;-80
2023/05/03 11:46:32;;;;;;;19.13;18.43;;;18.00;99.90;;;;;;4945591;28;20494;-81
2023/05/03 11:49:02;;;;;;;19.40;18.60;;;18.00;99.90;;;;;;4939910;28;20457;-81
2023/05/03 11:51:30;;;;;;;19.20;18.17;;;17.90;99.90;;;;;;4942805;29;20519;-82
2023/05/03 11:54:01;;;;;;;18.70;18.00;;;17.90;99.90;;;;;;4946904;28;20860;-81
2023/05/03 11:56:47;;;;;;;18.87;18.10;;;17.90;99.90;;;;;;4945699;28;20485;-82
2023/05/03 11:59:18;;;;;;;19.50;18.50;;;17.90;99.90;;;;;;4944648;28;20500;-82
2023/05/03 12:01:50;;;;;;;19.40;18.40;;;17.90;99.90;;;;;;4947059;28;20459;-81
2023/05/03 12:04:19;;;;;;;21.73;20.13;;;18.00;99.90;;;;;;4949310;28;20482;-84
2023/05/03 12:06:51;;;;;;;19.37;18.47;;;18.00;99.90;;;;;;4947526;28;20862;-82
2023/05/03 12:09:24;;;;;;;19.33;18.33;;;18.00;99.90;;;;;;4943884;28;20575;-79
2023/05/03 12:11:54;;;;;;;18.20;17.50;;;18.00;99.90;;;;;;4942340;28;20480;-80
2023/05/03 12:14:25;;;;;;;19.40;18.50;;;17.90;99.90;;;;;;4946183;28;20205;-82
2023/05/03 12:16:57;;;;;;;18.60;17.77;;;18.10;99.90;;;;;;4939478;28;20515;-79
2023/05/03 12:19:28;;;;;;;20.73;19.57;;;18.10;99.90;;;;;;4938236;29;20483;-81
2023/05/03 12:22:01;;;;;;;19.03;18.23;;;18.20;99.90;;;;;;4939072;28;20508;-80
2023/05/03 12:24:32;;;;;;;18.90;17.77;;;18.30;99.90;;;;;;4944472;28;20468;-79
2023/05/03 12:27:01;;;;;;;17.87;17.27;;;18.30;99.90;;;;;;4939773;28;20511;-81
2023/05/03 12:29:30;;;;;;;18.67;17.87;;;18.30;99.90;;;;;;4943563;28;20480;-80
2023/05/03 12:32:04;;;;;;;18.83;17.93;;;18.30;99.90;;;;;;4944103;28;20821;-80
2023/05/03 12:34:33;;;;;;;18.93;17.93;;;18.30;99.90;;;;;;4939052;28;20534;-80
2023/05/03 12:37:04;;;;;;;17.90;17.23;;;18.20;99.90;;;;;;4940524;28;20483;-80
2023/05/03 12:39:33;;;;;;;17.57;16.87;;;18.30;99.90;;;;;;4925242;28;20468;-80
2023/05/03 12:42:07;;;;;;;16.20;15.70;;;18.30;99.90;;;;;;4937637;28;20464;-79
2023/05/03 12:44:39;;;;;;;16.97;16.37;;;18.30;99.90;;;;;;4940924;29;20467;-80